»·PEaware :: N969WR KSAN-KLAS

N969WR :: KSAN-KLAS

FLIGHT INFORMATION

Flight Status: Arrived
Operator: Privately registered:
United States
More flights under this callsign
Pilot: Ion I. (24133)
Aircraft: CANADAIR CL-600 CHALLENGER
(CL60)
More flights by this aircraft type
Origin: KSAN San Diego Intl-Lindbergh
United States
Destination: KLAS Harry Reid Intl
United States
More flights between these airports :: More routes between these airports
Route: PADRZ2 CHKNN SEBBY YELAH MISEN RNDRZ2
File this flight plan on PilotEdge
Remarks:
Altitude:
(Current/Filed)
29,000ft
Speed:
(Current/Filed)
460kts
Departed: 29-Sep-22 08:18 PM
Arrived: 29-Sep-22 09:07 PM
Distance/Time
Traveled:
226nm/0:49
Distance/Time
To Go:
Arrived

Flight Plot

Page will automatically refresh every two minutes.

Flight plan parsing failed; only flown route is shown


Map Options




Map Legend


Flown Route
Filed Route
Departure Airport
Arrival Airport
Navaid (VOR, NDB)
Fix

Horizontal Profiles

Position Reports

Time Latitude Longitude Heading Altitude Ground
Speed
29-Sep-22 19:47 32.734270 -117.179513 157 23ft 0kts
29-Sep-22 19:49 32.734270 -117.179513 157 23ft 0kts
29-Sep-22 19:50 32.734270 -117.179513 157 23ft 0kts
29-Sep-22 19:50 32.734270 -117.179513 157 23ft 0kts
29-Sep-22 19:51 32.734270 -117.179513 157 23ft 0kts
29-Sep-22 19:52 32.734270 -117.179513 157 23ft 0kts
29-Sep-22 19:53 32.734270 -117.179513 157 23ft 0kts
29-Sep-22 19:54 32.734270 -117.179513 157 23ft 0kts
29-Sep-22 19:55 32.734270 -117.179513 157 23ft 0kts
29-Sep-22 19:56 32.734270 -117.179513 157 23ft 0kts
29-Sep-22 19:57 32.734270 -117.179513 157 23ft 0kts
29-Sep-22 19:58 32.734270 -117.179513 157 23ft 0kts
29-Sep-22 19:59 32.734270 -117.179513 157 23ft 0kts
29-Sep-22 20:00 32.734270 -117.179513 157 23ft 0kts
29-Sep-22 20:01 32.734270 -117.179513 157 23ft 0kts
29-Sep-22 20:02 32.734270 -117.179513 157 23ft 0kts
29-Sep-22 20:03 32.734270 -117.179513 157 23ft 0kts
29-Sep-22 20:04 32.734270 -117.179513 157 23ft 0kts
29-Sep-22 20:05 32.734270 -117.179513 157 23ft 0kts
29-Sep-22 20:06 32.734270 -117.179513 157 23ft 0kts
29-Sep-22 20:07 32.734270 -117.179513 157 23ft 0kts
29-Sep-22 20:08 32.734270 -117.179513 157 23ft 0kts
29-Sep-22 20:09 32.734270 -117.179513 157 23ft 0kts
29-Sep-22 20:10 32.734270 -117.179513 157 23ft 0kts
29-Sep-22 20:11 32.734270 -117.179513 157 23ft 0kts
29-Sep-22 20:12 32.734270 -117.179513 157 23ft 0kts
29-Sep-22 20:13 32.733928 -117.179346 153 23ft 0kts
29-Sep-22 20:14 32.733133 -117.179613 195 22ft 11kts
29-Sep-22 20:15 32.731454 -117.176314 105 27ft 14kts
29-Sep-22 20:16 32.730232 -117.175938 286 24ft 0kts
29-Sep-22 20:17 32.735638 -117.196862 287 348ft 166kts
29-Sep-22 20:18 32.762631 -117.249792 303 3207ft 210kts
29-Sep-22 20:19 32.797376 -117.313806 303 6102ft 259kts
29-Sep-22 20:20 32.843894 -117.386239 307 9134ft 292kts
29-Sep-22 20:21 32.893843 -117.463674 307 11680ft 304kts
29-Sep-22 20:22 32.948623 -117.548828 308 14727ft 340kts
29-Sep-22 20:23 33.010871 -117.645842 308 16586ft 384kts
29-Sep-22 20:24 33.078381 -117.746483 320 18858ft 393kts
29-Sep-22 20:25 33.175504 -117.799063 8 20992ft 407kts
29-Sep-22 20:26 33.279496 -117.743262 26 23130ft 418kts
29-Sep-22 20:27 33.381713 -117.675870 27 25235ft 419kts
29-Sep-22 20:28 33.482370 -117.607289 27 27193ft 418kts
29-Sep-22 20:29 33.583217 -117.537900 27 28556ft 430kts
29-Sep-22 20:30 33.689480 -117.464482 27 29021ft 456kts
29-Sep-22 20:31 33.801080 -117.386933 27 29038ft 464kts
29-Sep-22 20:32 33.912916 -117.309111 28 29045ft 463kts
29-Sep-22 20:33 34.024552 -117.231151 28 29042ft 463kts
29-Sep-22 20:34 34.131862 -117.156037 27 29054ft 466kts
29-Sep-22 20:35 34.243397 -117.077730 27 29142ft 467kts
29-Sep-22 20:36 34.355666 -116.998625 27 29210ft 467kts
29-Sep-22 20:37 34.468103 -116.919214 27 29184ft 467kts
29-Sep-22 20:38 34.580546 -116.839522 27 29116ft 468kts
29-Sep-22 20:39 34.692889 -116.759640 27 29038ft 468kts
29-Sep-22 20:40 34.805314 -116.679442 27 29017ft 468kts
29-Sep-22 20:41 34.912330 -116.588198 35 27829ft 463kts
29-Sep-22 20:42 35.010441 -116.493057 35 25854ft 443kts
29-Sep-22 20:43 35.105032 -116.401010 37 23924ft 433kts
29-Sep-22 20:44 35.187416 -116.294815 45 22737ft 430kts
29-Sep-22 20:45 35.267342 -116.187726 46 21548ft 423kts
29-Sep-22 20:46 35.344803 -116.081256 46 20356ft 417kts
29-Sep-22 20:47 35.421174 -115.976159 46 19202ft 408kts
29-Sep-22 20:48 35.493742 -115.876029 46 18114ft 375kts
29-Sep-22 20:49 35.559968 -115.784456 47 17131ft 344kts
29-Sep-22 20:50 35.622279 -115.699246 46 16186ft 332kts
29-Sep-22 20:51 35.684192 -115.615673 47 15263ft 329kts
29-Sep-22 20:52 35.748965 -115.537302 27 14345ft 324kts
29-Sep-22 20:53 35.828253 -115.485230 28 13439ft 323kts
29-Sep-22 20:54 35.906337 -115.431085 29 12544ft 321kts
29-Sep-22 20:55 35.983799 -115.377080 30 11588ft 318kts
29-Sep-22 20:56 36.011171 -115.284155 95 10544ft 296kts
29-Sep-22 20:57 36.006563 -115.187298 97 9721ft 270kts
29-Sep-22 20:58 36.001593 -115.098750 97 8954ft 251kts
29-Sep-22 20:59 35.999015 -115.013193 90 8057ft 247kts
29-Sep-22 21:00 36.050261 -114.970410 11 7476ft 232kts
29-Sep-22 21:01 36.113117 -114.957805 341 6929ft 227kts
29-Sep-22 21:02 36.142263 -115.019337 276 6082ft 202kts
29-Sep-22 21:03 36.150535 -115.081373 272 4165ft 167kts
29-Sep-22 21:04 36.147814 -115.130390 216 3413ft 144kts
29-Sep-22 21:05 36.111293 -115.149933 202 2538ft 145kts
29-Sep-22 21:06 36.084461 -115.165598 223 2186ft 30kts
29-Sep-22 21:07 36.084311 -115.167626 25 2186ft 20kts
29-Sep-22 21:08 36.090048 -115.164331 25 2186ft 27kts
29-Sep-22 21:09 36.096542 -115.160626 25 2186ft 26kts
29-Sep-22 21:10 36.099313 -115.160220 51 2186ft 10kts
29-Sep-22 21:11 36.099759 -115.159561 114 2186ft 0kts
29-Sep-22 21:12 36.099759 -115.159561 114 2186ft 0kts
29-Sep-22 21:13 36.099759 -115.159561 114 2186ft 0kts
29-Sep-22 21:14 36.099759 -115.159561 114 2186ft 0kts
29-Sep-22 21:15 36.099759 -115.159561 114 2186ft 0kts
29-Sep-22 21:16 36.099759 -115.159561 114 2186ft 0kts
29-Sep-22 21:17 36.099759 -115.159561 114 2186ft 0kts

Navigation Log

Ident Type
Flight plan parsing failed, navigation log unavailable